This is the latest recevied weather packets stored in our database for station/object KK4WXG. If no packets are shown the sender has not sent any weather packets the latest 10 day(s).
| Time | Temp. | Humidity | Pressure | Rain* | Wind** | Luminosity | Snow |
|---|---|---|---|---|---|---|---|
| 1777306763 | 18.33° C | 52% | 1024.1 hPa | 0 mm | - | 1026 W/m² | - |
| 1777306461 | 17.78° C | 52% | 1024.3 hPa | 0 mm | - | 1061 W/m² | - |
| 1777306155 | 17.78° C | 58% | 1024.2 hPa | 0 mm | - | 1004 W/m² | - |
| 1777305851 | 17.78° C | 54% | 1024.2 hPa | 0 mm | - | 995 W/m² | - |
| 1777305547 | 17.22° C | 56% | 1024.4 hPa | 0 mm | - | 639 W/m² | - |
| 1777305243 | 17.78° C | 55% | 1024.1 hPa | 0 mm | - | 977 W/m² | - |
| 1777304937 | 17.22° C | 58% | 1024.3 hPa | 0 mm | - | 964 W/m² | - |
| 1777304634 | 17.22° C | 58% | 1024.2 hPa | 0 mm | - | 921 W/m² | - |
| 1777304331 | 17.22° C | 58% | 1024.2 hPa | 0 mm | - | 913 W/m² | - |
| 1777304029 | 16.67° C | 61% | 1024.4 hPa | 0 mm | - | 924 W/m² | - |
| 1777303724 | 16.67° C | 60% | 1024.4 hPa | 0 mm | - | 899 W/m² | - |
| 1777303422 | 16.67° C | 60% | 1024.2 hPa | 0 mm | - | 881 W/m² | - |
| 1777303119 | 16.67° C | 56% | 1024.3 hPa | 0 mm | - | 883 W/m² | - |
| 1777302818 | 16.67° C | 60% | 1024.4 hPa | 0 mm | - | 868 W/m² | - |
| 1777302515 | 16.67° C | 59% | 1024.4 hPa | 0 mm | - | 853 W/m² | - |
| 1777302213 | 17.22° C | 62% | 1024.3 hPa | 0 mm | - | 850 W/m² | - |
| 1777301910 | 17.22° C | 61% | 1024.2 hPa | 0 mm | - | 836 W/m² | - |
| 1777301607 | 16.11° C | 58% | 1024.5 hPa | 0 mm | - | 821 W/m² | - |
| 1777301304 | 16.11° C | 63% | 1024.5 hPa | 0 mm | - | 806 W/m² | - |
| 1777301001 | 16.11° C | 62% | 1024.5 hPa | 0 mm | - | 788 W/m² | - |
| 1777300698 | 16.11° C | 64% | 1024.4 hPa | 0 mm | - | 781 W/m² | - |
| 1777300396 | 16.11° C | 63% | 1024.6 hPa | 0 mm | - | 767 W/m² | - |
| 1777300094 | 16.11° C | 61% | 1024.7 hPa | 0 mm | - | 754 W/m² | - |
| 1777299789 | 16.11° C | 61% | 1024.7 hPa | 0 mm | - | 732 W/m² | - |
| 1777299487 | 15.56° C | 64% | 1024.7 hPa | 0 mm | - | 726 W/m² | - |
* Rain latest hour (hover to see other rain measurements)
** Current wind speed in m/s (hover to see current wind gust speed)